createdAt,value
2022-09-13T00:01:21.309Z,73.53
2022-09-13T00:03:47.647Z,73.81
2022-09-13T00:06:16.926Z,73.99
2022-09-13T00:08:43.887Z,74.13
2022-09-13T00:11:16.621Z,74.89
2022-09-13T00:13:42.947Z,74.74
2022-09-13T00:16:14.942Z,74.73
2022-09-13T00:18:42.069Z,74.37
2022-09-13T00:21:14.379Z,74.20
2022-09-13T00:23:44.189Z,74.04
2022-09-13T00:26:13.783Z,74.00
2022-09-13T00:28:41.017Z,73.93
2022-09-13T00:31:09.458Z,73.58
2022-09-13T00:33:35.916Z,73.32
2022-09-13T00:36:07.727Z,73.19
2022-09-13T00:38:38.573Z,73.26
2022-09-13T00:41:06.485Z,73.34
2022-09-13T00:44:02.171Z,73.44
2022-09-13T00:46:37.528Z,72.90
2022-09-13T00:49:23.332Z,72.54
2022-09-13T00:51:55.494Z,72.30
2022-09-13T00:54:25.666Z,73.01
2022-09-13T00:56:56.753Z,72.95
2022-09-13T00:59:30.548Z,72.65
2022-09-13T01:01:57.775Z,72.69
2022-09-13T01:04:27.111Z,73.00
2022-09-13T01:06:57.087Z,72.90
2022-09-13T01:09:24.666Z,72.77
2022-09-13T01:12:13.892Z,72.31
2022-09-13T01:14:41.912Z,71.51
2022-09-13T01:17:08.867Z,71.17
2022-09-13T01:19:35.859Z,71.93
2022-09-13T01:22:20.757Z,72.29
2022-09-13T01:24:53.006Z,72.17
2022-09-13T01:27:35.835Z,71.60
2022-09-13T01:30:15.711Z,72.32
2022-09-13T01:33:02.508Z,72.94
2022-09-13T01:36:07.035Z,71.86
2022-09-13T01:38:53.091Z,71.45
2022-09-13T01:41:49.921Z,70.50
2022-09-13T01:44:45.599Z,70.29
2022-09-13T01:47:24.390Z,70.43
2022-09-13T01:50:12.686Z,70.42
2022-09-13T01:52:45.241Z,69.95
2022-09-13T01:55:30.222Z,70.08
2022-09-13T01:58:12.965Z,70.35
2022-09-13T02:00:52.159Z,70.57
2022-09-13T02:03:23.569Z,70.95
2022-09-13T02:05:54.374Z,71.44
2022-09-13T02:08:34.141Z,71.01
2022-09-13T02:11:08.402Z,70.55
2022-09-13T02:13:51.464Z,70.80
2022-09-13T02:16:34.037Z,71.01
2022-09-13T02:19:10.027Z,71.43
2022-09-13T02:21:39.970Z,71.29
2022-09-13T02:24:16.007Z,72.53
2022-09-13T02:26:45.496Z,73.01
2022-09-13T02:29:19.218Z,73.36
2022-09-13T02:31:58.801Z,74.44
2022-09-13T02:34:32.648Z,75.02
2022-09-13T02:37:01.397Z,76.36
2022-09-13T02:39:32.149Z,77.02
2022-09-13T02:42:12.684Z,75.85
2022-09-13T02:44:49.399Z,75.16
2022-09-13T02:48:01.290Z,75.40
2022-09-13T02:50:49.191Z,76.48
2022-09-13T02:53:31.017Z,76.29
2022-09-13T02:56:31.637Z,77.44
2022-09-13T02:59:05.873Z,78.24
2022-09-13T03:01:35.366Z,79.47
2022-09-13T03:04:02.219Z,80.44
2022-09-13T03:06:29.628Z,81.44
2022-09-13T03:08:59.634Z,81.85
2022-09-13T03:11:54.094Z,81.10
2022-09-13T03:14:34.349Z,80.57
2022-09-13T03:17:22.391Z,79.80
2022-09-13T03:20:24.123Z,79.46
2022-09-13T03:23:02.564Z,79.18
2022-09-13T03:26:06.741Z,78.92
2022-09-13T03:29:11.835Z,79.19
2022-09-13T03:31:50.412Z,78.93
2022-09-13T03:34:34.806Z,78.21
2022-09-13T03:37:05.695Z,77.11
2022-09-13T03:39:49.984Z,76.56
2022-09-13T03:42:21.902Z,76.96
2022-09-13T03:44:51.219Z,77.95
2022-09-13T03:47:19.294Z,78.93
2022-09-13T03:49:45.584Z,79.45
2022-09-13T03:52:12.777Z,78.64
2022-09-13T03:54:39.140Z,79.21
2022-09-13T03:57:16.834Z,79.54
2022-09-13T03:59:50.612Z,80.17
2022-09-13T04:02:18.615Z,80.36
2022-09-13T04:04:46.018Z,81.19
2022-09-13T04:07:15.882Z,80.75
2022-09-13T04:09:42.276Z,80.50
2022-09-13T04:12:08.941Z,80.64
2022-09-13T04:14:35.614Z,80.76
2022-09-13T04:17:01.943Z,81.08
2022-09-13T04:19:28.255Z,81.44
2022-09-13T04:21:55.696Z,81.63
2022-09-13T04:24:25.594Z,82.05
2022-09-13T04:26:52.491Z,82.57
2022-09-13T04:29:19.418Z,82.95
2022-09-13T04:31:46.498Z,83.54
2022-09-13T04:34:13.507Z,83.97
2022-09-13T04:36:40.150Z,83.93
2022-09-13T04:39:06.796Z,83.67
2022-09-13T04:41:33.390Z,83.66
2022-09-13T04:43:59.764Z,84.45
2022-09-13T04:46:26.074Z,84.79
2022-09-13T04:48:52.463Z,84.62
2022-09-13T04:51:19.610Z,83.83
2022-09-13T04:53:46.395Z,82.84
2022-09-13T04:56:13.074Z,82.52
2022-09-13T04:58:40.001Z,82.47
2022-09-13T05:01:09.600Z,82.78
2022-09-13T05:03:36.715Z,83.27
2022-09-13T05:06:09.640Z,83.63
2022-09-13T05:08:36.925Z,83.87
2022-09-13T05:11:03.696Z,84.18
2022-09-13T05:13:30.639Z,84.50
2022-09-13T05:16:01.465Z,84.32
2022-09-13T05:18:29.366Z,84.62
2022-09-13T05:20:56.503Z,84.20
2022-09-13T05:23:24.133Z,83.04
2022-09-13T05:25:59.220Z,81.03
2022-09-13T05:28:27.861Z,80.48
2022-09-13T05:31:03.055Z,80.27
2022-09-13T05:33:32.040Z,79.75
2022-09-13T05:35:58.723Z,79.69
2022-09-13T05:38:25.406Z,79.41
2022-09-13T05:40:56.251Z,79.13
2022-09-13T05:43:25.226Z,79.05
2022-09-13T05:46:20.184Z,78.99
2022-09-13T05:48:47.880Z,78.95
2022-09-13T05:51:22.198Z,78.79
2022-09-13T05:53:50.670Z,78.84
2022-09-13T05:56:21.663Z,78.51
2022-09-13T05:58:49.154Z,78.13
2022-09-13T06:01:20.808Z,77.81
2022-09-13T06:03:51.565Z,77.84
2022-09-13T06:06:18.909Z,77.75
2022-09-13T06:08:46.162Z,77.56
2022-09-13T06:11:14.227Z,77.75
2022-09-13T06:13:41.371Z,77.85
2022-09-13T06:16:09.892Z,78.11
2022-09-13T06:18:36.950Z,77.99
2022-09-13T06:21:07.219Z,77.96
2022-09-13T06:23:34.158Z,77.35
2022-09-13T06:26:02.812Z,77.11
2022-09-13T06:28:29.109Z,77.48
2022-09-13T06:31:02.277Z,76.93
2022-09-13T06:33:29.091Z,76.52
2022-09-13T06:35:55.398Z,75.94
2022-09-13T06:38:21.710Z,75.43
2022-09-13T06:40:47.994Z,75.35
2022-09-13T06:43:14.296Z,74.45
2022-09-13T06:45:40.574Z,73.22
2022-09-13T06:48:06.893Z,72.08
2022-09-13T06:50:33.880Z,71.47
2022-09-13T06:53:00.168Z,70.75
2022-09-13T06:55:26.434Z,70.81
2022-09-13T06:57:52.730Z,70.72
2022-09-13T07:00:19.148Z,70.25
2022-09-13T07:02:50.728Z,69.51
2022-09-13T07:05:16.997Z,68.60
2022-09-13T07:07:43.307Z,67.43
2022-09-13T07:10:09.859Z,67.34
2022-09-13T07:12:36.133Z,66.02
2022-09-13T07:15:02.447Z,67.35
2022-09-13T07:17:31.452Z,66.38
2022-09-13T07:19:57.987Z,66.29
2022-09-13T07:22:24.270Z,65.97
2022-09-13T07:24:50.567Z,66.23
2022-09-13T07:27:16.857Z,66.36
2022-09-13T07:29:43.155Z,65.47
2022-09-13T07:32:09.461Z,65.62
2022-09-13T07:34:35.765Z,66.62
2022-09-13T07:37:02.055Z,65.46
2022-09-13T07:39:28.354Z,66.08
2022-09-13T07:41:54.635Z,65.51
2022-09-13T07:44:20.967Z,65.86
2022-09-13T07:46:47.266Z,65.44
2022-09-13T07:49:16.989Z,65.76
2022-09-13T07:51:44.249Z,65.68
2022-09-13T07:54:13.781Z,65.70
2022-09-13T07:56:40.648Z,65.96
2022-09-13T07:59:11.618Z,66.18
2022-09-13T08:01:46.792Z,66.15
2022-09-13T08:04:16.831Z,64.65
2022-09-13T08:06:43.389Z,63.72
2022-09-13T08:09:11.002Z,63.74
2022-09-13T08:11:38.608Z,63.33
2022-09-13T08:14:06.851Z,62.82
2022-09-13T08:16:33.625Z,62.74
2022-09-13T08:19:01.903Z,63.06
2022-09-13T08:21:34.327Z,63.37
2022-09-13T08:24:00.865Z,62.58
2022-09-13T08:26:32.332Z,63.90
2022-09-13T08:29:00.947Z,63.70
2022-09-13T08:31:27.974Z,63.38
2022-09-13T08:33:54.798Z,63.41
2022-09-13T08:36:22.080Z,62.20
2022-09-13T08:38:54.327Z,63.31
2022-09-13T08:41:39.082Z,63.44
2022-09-13T08:44:17.350Z,63.76
2022-09-13T08:46:46.431Z,64.58
2022-09-13T08:49:20.714Z,64.17
2022-09-13T08:51:52.828Z,63.83
2022-09-13T08:54:20.017Z,64.18
2022-09-13T08:57:07.193Z,62.81
2022-09-13T08:59:45.519Z,62.48
2022-09-13T09:02:29.315Z,62.49
2022-09-13T09:05:10.802Z,61.78
2022-09-13T09:07:42.551Z,61.96
2022-09-13T09:10:17.855Z,61.67
2022-09-13T09:12:55.319Z,61.35
2022-09-13T09:15:24.715Z,61.00
2022-09-13T09:18:09.087Z,60.95
2022-09-13T09:20:47.972Z,61.49
2022-09-13T09:23:26.040Z,61.04
2022-09-13T09:26:23.745Z,60.03
2022-09-13T09:28:59.419Z,60.35
2022-09-13T09:32:00.191Z,60.68
2022-09-13T09:34:52.479Z,60.17
2022-09-13T09:37:21.950Z,61.08
2022-09-13T09:39:49.796Z,61.85
2022-09-13T09:42:22.113Z,62.38
2022-09-13T09:45:28.700Z,62.83
2022-09-13T09:47:57.322Z,63.12
2022-09-13T09:50:32.326Z,64.03
2022-09-13T09:53:09.988Z,64.12
2022-09-13T09:55:49.379Z,63.86
2022-09-13T09:58:16.172Z,63.97
2022-09-13T10:00:55.077Z,63.77
2022-09-13T10:03:26.649Z,62.90
2022-09-13T10:06:24.848Z,62.72
2022-09-13T10:09:18.922Z,62.14
2022-09-13T10:11:52.809Z,62.03
2022-09-13T10:14:34.349Z,61.20
2022-09-13T10:17:14.505Z,60.74
2022-09-13T10:19:41.478Z,61.10
2022-09-13T10:22:12.631Z,60.68
2022-09-13T10:24:39.641Z,61.84
2022-09-13T10:27:20.719Z,60.16
2022-09-13T10:29:50.258Z,59.53
2022-09-13T10:32:16.574Z,59.08
2022-09-13T10:34:45.183Z,57.97
2022-09-13T10:37:17.433Z,58.64
2022-09-13T10:40:04.191Z,59.24
2022-09-13T10:42:30.653Z,60.02
2022-09-13T10:45:06.279Z,60.54
2022-09-13T10:47:52.803Z,59.98
2022-09-13T10:50:25.515Z,59.77
2022-09-13T10:52:53.911Z,60.46
2022-09-13T10:55:20.156Z,60.44
2022-09-13T10:57:48.654Z,60.34
2022-09-13T11:00:21.835Z,61.67
2022-09-13T11:03:25.960Z,62.68
2022-09-13T11:06:30.355Z,62.82
2022-09-13T11:09:08.646Z,63.81
2022-09-13T11:11:49.239Z,64.19
2022-09-13T11:14:43.270Z,65.63
2022-09-13T11:17:26.857Z,65.63
2022-09-13T11:19:59.321Z,65.84
2022-09-13T11:22:48.977Z,67.07
2022-09-13T11:25:27.487Z,67.31
2022-09-13T11:28:06.110Z,68.63
2022-09-13T11:30:57.484Z,68.53
2022-09-13T11:33:46.261Z,68.73
2022-09-13T11:36:42.600Z,68.31
2022-09-13T11:39:24.545Z,68.30
2022-09-13T11:42:07.389Z,68.44
2022-09-13T11:44:51.648Z,68.06
2022-09-13T11:47:37.100Z,67.86
2022-09-13T11:50:09.354Z,69.32
2022-09-13T11:52:41.534Z,69.31
2022-09-13T11:55:18.452Z,69.10
2022-09-13T11:58:11.858Z,68.51
2022-09-13T12:00:44.467Z,67.31
2022-09-13T12:03:10.931Z,68.28
2022-09-13T12:05:59.334Z,69.36
2022-09-13T12:08:32.260Z,69.12
2022-09-13T12:11:16.013Z,69.03
2022-09-13T12:13:48.477Z,69.57
2022-09-13T12:16:23.278Z,69.27
2022-09-13T12:18:51.465Z,69.57
2022-09-13T12:21:22.740Z,68.40
2022-09-13T12:24:02.616Z,68.17
2022-09-13T12:26:54.367Z,67.72
2022-09-13T12:29:25.926Z,66.92
2022-09-13T12:31:58.968Z,66.51
2022-09-13T12:34:42.610Z,65.88
2022-09-13T12:37:08.931Z,64.83
2022-09-13T12:39:50.211Z,64.83
2022-09-13T12:42:31.138Z,64.96
2022-09-13T12:45:07.066Z,65.73
2022-09-13T12:47:42.555Z,64.59
2022-09-13T12:53:35.312Z,62.72
2022-09-13T12:56:31.593Z,62.06
2022-09-13T12:59:15.758Z,61.18
2022-09-13T13:01:46.780Z,61.49
2022-09-13T13:04:18.728Z,59.24
2022-09-13T13:06:53.542Z,58.85
2022-09-13T13:09:28.810Z,58.22
2022-09-13T13:11:57.003Z,57.84
2022-09-13T13:14:49.617Z,57.67
2022-09-13T13:17:39.509Z,60.44
2022-09-13T13:20:42.656Z,61.45
2022-09-13T13:23:16.588Z,60.62
2022-09-13T13:26:01.456Z,61.67
2022-09-13T13:28:42.952Z,61.42
2022-09-13T13:31:09.867Z,63.08
2022-09-13T13:33:51.762Z,66.41
2022-09-13T13:36:42.242Z,65.09
2022-09-13T13:39:23.876Z,65.61
2022-09-13T13:42:01.712Z,63.74
2022-09-13T13:44:27.939Z,62.05
2022-09-13T13:47:14.174Z,60.92
2022-09-13T13:49:40.415Z,60.56
2022-09-13T13:52:06.695Z,60.60
2022-09-13T13:54:42.218Z,62.34
2022-09-13T13:57:29.710Z,62.23
2022-09-13T13:59:57.585Z,61.09
2022-09-13T14:02:36.966Z,60.27
2022-09-13T14:05:24.818Z,58.81
2022-09-13T14:08:12.704Z,58.86
2022-09-13T14:11:03.022Z,58.74
2022-09-13T14:13:32.277Z,60.62
2022-09-13T14:16:15.515Z,59.94
2022-09-13T14:19:11.728Z,60.45
2022-09-13T14:21:38.057Z,60.97
2022-09-13T14:24:08.682Z,60.72
2022-09-13T14:26:35.851Z,61.18
2022-09-13T14:29:06.803Z,60.82
2022-09-13T14:31:33.351Z,61.67
2022-09-13T14:33:59.748Z,62.63
2022-09-13T14:36:26.028Z,61.82
2022-09-13T14:38:57.170Z,60.97
2022-09-13T14:41:32.949Z,59.97
2022-09-13T14:44:26.374Z,58.89
2022-09-13T14:46:59.866Z,58.50
2022-09-13T14:49:32.080Z,57.68
2022-09-13T14:52:03.591Z,57.47
2022-09-13T14:54:40.113Z,57.49
2022-09-13T14:57:14.986Z,57.41
2022-09-13T14:59:48.591Z,56.68
2022-09-13T15:02:24.973Z,58.38
2022-09-13T15:04:57.317Z,57.58
2022-09-13T15:07:28.558Z,56.94
2022-09-13T15:10:08.122Z,57.20
2022-09-13T15:12:35.289Z,55.29
2022-09-13T15:15:20.018Z,55.17
2022-09-13T15:17:53.735Z,55.52
2022-09-13T15:20:21.018Z,55.60
2022-09-13T15:22:47.972Z,56.03
2022-09-13T15:25:25.535Z,55.69
2022-09-13T15:27:53.146Z,54.04
2022-09-13T15:30:31.802Z,54.92
2022-09-13T15:33:10.326Z,56.23
2022-09-13T15:35:42.087Z,55.77
2022-09-13T15:38:27.997Z,56.23
2022-09-13T15:41:18.210Z,57.24
2022-09-13T15:43:44.778Z,57.27
2022-09-13T15:46:14.915Z,56.70
2022-09-13T15:48:46.674Z,57.41
2022-09-13T15:51:14.842Z,57.46
2022-09-13T15:53:43.612Z,57.08
2022-09-13T15:56:20.228Z,56.67
2022-09-13T15:58:46.844Z,57.52
2022-09-13T16:01:14.499Z,57.48
2022-09-13T16:03:41.057Z,58.48
2022-09-13T16:06:08.274Z,58.40
2022-09-13T16:08:38.866Z,58.00
2022-09-13T16:11:05.857Z,58.57
2022-09-13T16:13:33.039Z,58.13
2022-09-13T16:15:59.905Z,57.75
2022-09-13T16:18:26.224Z,57.44
2022-09-13T16:20:52.725Z,57.14
2022-09-13T16:23:19.011Z,57.28
2022-09-13T16:25:45.458Z,57.45
2022-09-13T16:28:18.438Z,57.57
2022-09-13T16:30:44.724Z,57.65
2022-09-13T16:33:10.996Z,57.56
2022-09-13T16:35:37.503Z,57.07
2022-09-13T16:38:04.078Z,57.61
2022-09-13T16:40:30.472Z,57.90
2022-09-13T16:42:56.870Z,56.14
2022-09-13T16:45:23.198Z,56.13
2022-09-13T16:47:49.951Z,55.90
2022-09-13T16:50:16.543Z,55.31
2022-09-13T16:52:42.830Z,55.24
2022-09-13T16:55:09.435Z,55.05
2022-09-13T16:57:35.789Z,55.43
2022-09-13T17:00:02.392Z,55.85
2022-09-13T17:02:28.922Z,56.11
2022-09-13T17:04:55.329Z,55.96
2022-09-13T17:07:21.620Z,55.99
2022-09-13T17:09:47.934Z,56.18
2022-09-13T17:12:14.690Z,56.34
2022-09-13T17:14:41.955Z,56.97
2022-09-13T17:17:08.329Z,57.46
2022-09-13T17:19:35.047Z,57.04
2022-09-13T17:22:03.562Z,57.36
2022-09-13T17:24:30.599Z,58.00
2022-09-13T17:26:58.498Z,57.86
2022-09-13T17:29:25.576Z,58.26
2022-09-13T17:31:52.346Z,58.41
2022-09-13T17:34:18.655Z,58.46
2022-09-13T17:36:47.251Z,58.62
2022-09-13T17:39:17.340Z,58.72
2022-09-13T17:41:43.693Z,58.75
2022-09-13T17:44:09.974Z,59.19
2022-09-13T17:46:36.378Z,59.56
2022-09-13T17:49:02.805Z,60.23
2022-09-13T17:51:31.540Z,59.85
2022-09-13T17:54:00.470Z,59.82
2022-09-13T17:56:38.788Z,59.96
2022-09-13T17:59:10.251Z,60.52
2022-09-13T18:01:38.704Z,60.37
2022-09-13T18:04:05.565Z,60.56
2022-09-13T18:06:31.884Z,60.43
2022-09-13T18:08:58.184Z,60.68
2022-09-13T18:11:24.504Z,61.42
2022-09-13T18:13:51.494Z,61.83
2022-09-13T18:16:21.886Z,61.28
2022-09-13T18:18:50.691Z,61.38
2022-09-13T18:21:19.736Z,60.88
2022-09-13T18:23:47.774Z,61.29
2022-09-13T18:26:16.344Z,61.60
2022-09-13T18:28:43.094Z,62.25
2022-09-13T18:31:13.946Z,62.98
2022-09-13T18:33:40.675Z,63.49
2022-09-13T18:36:13.126Z,63.21
2022-09-13T18:38:43.376Z,63.51
2022-09-13T18:41:21.405Z,63.52
2022-09-13T18:43:54.477Z,64.31
2022-09-13T18:46:25.267Z,64.46
2022-09-13T18:48:54.883Z,64.94
2022-09-13T18:51:23.221Z,65.38
2022-09-13T18:53:50.832Z,65.74
2022-09-13T18:56:19.265Z,65.60
2022-09-13T18:58:46.054Z,65.23
2022-09-13T19:01:27.001Z,65.48
2022-09-13T19:03:59.110Z,65.08
2022-09-13T19:06:28.137Z,65.39
2022-09-13T19:08:55.941Z,65.09
2022-09-13T19:11:45.378Z,64.82
2022-09-13T19:14:20.305Z,64.53
2022-09-13T19:16:46.842Z,64.91
2022-09-13T19:19:13.532Z,65.35
2022-09-13T19:21:40.290Z,65.39
2022-09-13T19:24:11.691Z,64.83
2022-09-13T19:26:40.077Z,65.45
2022-09-13T19:29:08.727Z,64.79
2022-09-13T19:31:37.753Z,64.92
2022-09-13T19:34:04.497Z,65.57
2022-09-13T19:36:34.277Z,65.86
2022-09-13T19:39:01.303Z,66.09
2022-09-13T19:41:29.527Z,65.97
2022-09-13T19:43:58.978Z,66.28
2022-09-13T19:46:27.080Z,66.57
2022-09-13T19:48:55.662Z,66.72
2022-09-13T19:51:25.051Z,66.93
2022-09-13T19:53:59.251Z,67.04
2022-09-13T19:56:31.161Z,67.23
2022-09-13T19:58:58.307Z,67.42
2022-09-13T20:01:30.465Z,67.61
2022-09-13T20:03:59.270Z,67.82
2022-09-13T20:06:27.623Z,67.84
2022-09-13T20:08:58.588Z,67.78
2022-09-13T20:11:25.209Z,68.02
2022-09-13T20:13:52.343Z,68.11
2022-09-13T20:16:21.474Z,68.18
2022-09-13T20:18:47.956Z,68.61
2022-09-13T20:21:14.939Z,68.74
2022-09-13T20:23:42.603Z,68.88
2022-09-13T20:26:23.067Z,68.93
2022-09-13T20:28:49.403Z,68.92
2022-09-13T20:31:16.723Z,68.96
2022-09-13T20:33:43.297Z,68.87
2022-09-13T20:36:11.702Z,68.82
2022-09-13T20:38:38.565Z,69.06
2022-09-13T20:41:10.095Z,68.89
2022-09-13T20:43:36.624Z,69.35
2022-09-13T20:46:04.584Z,69.57
2022-09-13T20:48:31.976Z,69.71
2022-09-13T20:51:00.114Z,69.75
2022-09-13T20:53:27.577Z,69.49
2022-09-13T20:55:53.882Z,69.54
2022-09-13T20:58:22.028Z,69.44
2022-09-13T21:00:49.064Z,69.29
2022-09-13T21:03:16.213Z,69.30
2022-09-13T21:05:43.099Z,69.25
2022-09-13T21:08:16.471Z,69.04
2022-09-13T21:10:42.785Z,68.94
2022-09-13T21:13:09.101Z,68.72
2022-09-13T21:15:35.407Z,68.76
2022-09-13T21:18:01.739Z,68.79
2022-09-13T21:20:28.051Z,69.11
2022-09-13T21:22:54.329Z,69.26
2022-09-13T21:25:20.670Z,69.38
2022-09-13T21:27:46.966Z,69.33
2022-09-13T21:30:13.314Z,70.73
2022-09-13T21:32:39.606Z,70.58
2022-09-13T21:35:06.149Z,71.25
2022-09-13T21:37:32.439Z,70.71
2022-09-13T21:39:58.761Z,70.81
2022-09-13T21:42:25.050Z,70.14
2022-09-13T21:44:51.342Z,68.90
2022-09-13T21:47:17.679Z,69.39
2022-09-13T21:49:44.003Z,71.75
2022-09-13T21:52:10.295Z,72.07
2022-09-13T21:54:36.604Z,70.71
2022-09-13T21:57:02.916Z,72.84
2022-09-13T21:59:29.195Z,73.79
2022-09-13T22:01:55.528Z,73.66
2022-09-13T22:04:24.438Z,73.62
2022-09-13T22:06:51.750Z,73.25
2022-09-13T22:09:19.219Z,73.24
2022-09-13T22:11:47.503Z,72.91
2022-09-13T22:14:16.794Z,73.49
2022-09-13T22:16:44.872Z,73.72
2022-09-13T22:19:19.166Z,73.67
2022-09-13T22:21:48.108Z,74.55
2022-09-13T22:24:18.403Z,74.38
2022-09-13T22:26:46.173Z,73.93
2022-09-13T22:29:12.574Z,72.11
2022-09-13T22:31:40.469Z,71.43
2022-09-13T22:34:08.222Z,71.79
2022-09-13T22:36:34.548Z,72.16
2022-09-13T22:39:00.856Z,72.87
2022-09-13T22:41:30.437Z,73.58
2022-09-13T22:43:58.703Z,73.68
2022-09-13T22:46:34.418Z,73.76
2022-09-13T22:49:01.883Z,74.41
2022-09-13T22:51:28.776Z,75.20
2022-09-13T22:53:55.909Z,76.18
2022-09-13T22:56:27.738Z,76.65
2022-09-13T22:58:55.829Z,77.50
2022-09-13T23:01:24.133Z,77.69
2022-09-13T23:03:51.548Z,77.82
2022-09-13T23:06:21.900Z,77.49
2022-09-13T23:08:49.950Z,77.45
2022-09-13T23:11:23.613Z,77.25
2022-09-13T23:13:51.608Z,77.18
2022-09-13T23:16:24.513Z,77.16
2022-09-13T23:18:51.510Z,77.64
2022-09-13T23:21:20.131Z,77.55
2022-09-13T23:23:46.609Z,77.62
2022-09-13T23:26:15.415Z,77.47
2022-09-13T23:28:41.728Z,77.88
2022-09-13T23:31:10.059Z,77.61
2022-09-13T23:33:41.294Z,77.64
2022-09-13T23:36:09.362Z,77.95
2022-09-13T23:38:36.251Z,78.09
2022-09-13T23:41:02.938Z,78.06
2022-09-13T23:43:29.478Z,78.38
2022-09-13T23:45:56.003Z,78.77
2022-09-13T23:48:23.024Z,79.31
2022-09-13T23:51:04.587Z,79.24
2022-09-13T23:53:31.367Z,80.14
2022-09-13T23:55:57.931Z,80.84
2022-09-13T23:58:24.378Z,80.82
